createdAt,value
2019-04-27T00:01:25.718Z,12.03
2019-04-27T00:04:32.871Z,12.50
2019-04-27T00:07:08.005Z,13.43
2019-04-27T00:09:43.240Z,9.67
2019-04-27T00:12:10.597Z,10.33
2019-04-27T00:14:38.958Z,9.60
2019-04-27T00:17:43.483Z,10.87
2019-04-27T00:20:26.359Z,9.57
2019-04-27T00:22:57.811Z,11.33
2019-04-27T00:25:27.020Z,9.80
2019-04-27T00:27:54.890Z,10.77
2019-04-27T00:30:23.466Z,9.13
2019-04-27T00:32:53.478Z,8.87
2019-04-27T00:35:27.944Z,8.87
2019-04-27T00:38:05.130Z,8.53
2019-04-27T00:40:38.683Z,9.43
2019-04-27T00:43:06.701Z,9.07
2019-04-27T00:45:34.669Z,9.13
2019-04-27T00:48:03.520Z,6.83
2019-04-27T00:50:31.683Z,5.70
2019-04-27T00:52:59.581Z,5.93
2019-04-27T00:55:27.469Z,9.50
2019-04-27T00:58:13.267Z,8.07
2019-04-27T01:01:06.541Z,6.27
2019-04-27T01:03:46.917Z,5.63
2019-04-27T01:06:15.008Z,5.77
2019-04-27T01:08:44.921Z,5.03
2019-04-27T01:11:14.065Z,6.90
2019-04-27T01:13:43.433Z,5.20
2019-04-27T01:16:14.659Z,6.27
2019-04-27T01:18:41.590Z,6.10
2019-04-27T01:21:09.632Z,5.00
2019-04-27T01:23:38.503Z,4.87
2019-04-27T01:26:28.983Z,3.07
2019-04-27T01:29:03.397Z,3.27
2019-04-27T01:31:31.529Z,4.40
2019-04-27T01:33:59.445Z,4.63
2019-04-27T01:36:29.053Z,5.33
2019-04-27T01:38:57.239Z,2.97
2019-04-27T01:41:25.194Z,2.83
2019-04-27T01:43:53.043Z,4.00
2019-04-27T01:46:21.155Z,3.03
2019-04-27T01:48:49.300Z,2.70
2019-04-27T01:51:17.246Z,3.00
2019-04-27T01:53:45.344Z,3.70
2019-04-27T01:56:13.334Z,3.07
2019-04-27T01:58:41.299Z,2.70
2019-04-27T02:01:46.082Z,2.67
2019-04-27T02:04:22.423Z,3.07
2019-04-27T02:06:51.848Z,3.40
2019-04-27T02:09:22.252Z,2.47
2019-04-27T02:11:50.472Z,2.50
2019-04-27T02:14:19.624Z,1.53
2019-04-27T02:16:49.243Z,1.67
2019-04-27T02:19:18.996Z,3.10
2019-04-27T02:21:47.343Z,3.53
2019-04-27T02:24:15.325Z,2.20
2019-04-27T02:26:43.389Z,1.43
2019-04-27T02:29:29.603Z,4.07
2019-04-27T02:32:12.898Z,2.87
2019-04-27T02:34:53.769Z,1.93
2019-04-27T02:37:21.808Z,2.33
2019-04-27T02:39:50.187Z,1.20
2019-04-27T02:42:20.080Z,2.40
2019-04-27T02:44:49.451Z,2.10
2019-04-27T02:47:20.499Z,1.97
2019-04-27T02:49:50.384Z,1.83
2019-04-27T02:52:37.289Z,1.10
2019-04-27T02:55:06.332Z,2.17
2019-04-27T02:57:34.220Z,1.70
2019-04-27T03:00:02.388Z,2.20
2019-04-27T03:02:40.256Z,0.87
2019-04-27T03:05:12.799Z,0.70
2019-04-27T03:07:39.956Z,0.87
2019-04-27T03:10:09.911Z,0.97
2019-04-27T03:12:43.330Z,1.13
2019-04-27T03:15:23.658Z,2.37
2019-04-27T03:18:10.990Z,1.10
2019-04-27T03:21:00.327Z,2.97
2019-04-27T03:23:30.395Z,1.13
2019-04-27T03:26:10.711Z,0.83
2019-04-27T03:28:40.199Z,1.77
2019-04-27T03:31:12.517Z,0.60
2019-04-27T03:33:42.259Z,0.70
2019-04-27T03:36:12.506Z,1.03
2019-04-27T03:38:39.713Z,2.10
2019-04-27T03:41:09.565Z,0.70
2019-04-27T03:43:40.019Z,1.20
2019-04-27T03:46:10.119Z,1.63
2019-04-27T03:48:37.584Z,1.00
2019-04-27T03:51:23.361Z,0.70
2019-04-27T03:54:10.741Z,2.57
2019-04-27T03:56:44.915Z,1.50
2019-04-27T03:59:19.570Z,1.97
2019-04-27T04:01:50.511Z,1.97
2019-04-27T04:04:19.549Z,1.33
2019-04-27T04:06:49.485Z,1.63
2019-04-27T04:09:19.612Z,0.90
2019-04-27T04:11:59.176Z,0.80
2019-04-27T04:14:27.384Z,0.90
2019-04-27T04:17:02.221Z,2.17
2019-04-27T04:19:29.628Z,0.60
2019-04-27T04:21:57.092Z,1.77
2019-04-27T04:24:28.423Z,0.83
2019-04-27T04:26:55.018Z,0.77
2019-04-27T04:29:22.987Z,2.30
2019-04-27T04:31:50.895Z,0.70
2019-04-27T04:34:19.782Z,0.70
2019-04-27T04:36:50.175Z,1.13
2019-04-27T04:39:19.833Z,1.33
2019-04-27T04:41:59.959Z,1.00
2019-04-27T04:44:46.176Z,0.93
2019-04-27T04:47:26.173Z,1.73
2019-04-27T04:50:07.340Z,0.70
2019-04-27T04:52:24.052Z,1.23
2019-04-27T04:54:52.358Z,0.77
2019-04-27T04:57:21.975Z,1.43
2019-04-27T04:59:51.497Z,0.80
2019-04-27T05:02:20.027Z,0.60
2019-04-27T05:04:49.179Z,1.07
2019-04-27T05:07:17.384Z,1.13
2019-04-27T05:09:48.594Z,1.00
2019-04-27T05:12:16.726Z,0.80
2019-04-27T05:14:44.753Z,1.87
2019-04-27T05:17:12.788Z,1.43
2019-04-27T05:19:40.863Z,1.37
2019-04-27T05:22:09.402Z,1.10
2019-04-27T05:24:39.161Z,1.53
2019-04-27T05:27:09.025Z,3.53
2019-04-27T05:29:36.952Z,1.07
2019-04-27T05:32:05.019Z,1.87
2019-04-27T05:34:32.930Z,3.43
2019-04-27T05:37:01.124Z,2.03
2019-04-27T05:39:29.936Z,1.83
2019-04-27T05:41:59.718Z,1.77
2019-04-27T05:44:53.245Z,1.73
2019-04-27T05:47:37.076Z,0.90
2019-04-27T05:50:18.363Z,1.43
2019-04-27T05:52:46.034Z,1.90
2019-04-27T05:55:14.040Z,0.80
2019-04-27T05:57:41.985Z,0.70
2019-04-27T06:00:13.473Z,1.03
2019-04-27T06:02:41.310Z,3.20
2019-04-27T06:05:11.560Z,1.00
2019-04-27T06:07:39.686Z,2.13
2019-04-27T06:10:09.195Z,1.33
2019-04-27T06:12:39.469Z,2.57
2019-04-27T06:15:09.519Z,2.10
2019-04-27T06:17:38.730Z,1.70
2019-04-27T06:20:06.941Z,2.67
2019-04-27T06:22:34.778Z,1.83
2019-04-27T06:25:02.991Z,2.80
2019-04-27T06:27:31.162Z,2.30
2019-04-27T06:29:59.507Z,1.80
2019-04-27T06:32:29.362Z,2.77
2019-04-27T06:34:58.977Z,4.83
2019-04-27T06:37:29.109Z,3.07
2019-04-27T06:39:59.416Z,6.13
2019-04-27T06:42:26.990Z,7.73
2019-04-27T06:44:55.211Z,8.63
2019-04-27T06:47:23.213Z,12.77
2019-04-27T06:49:51.208Z,10.67
2019-04-27T06:52:31.228Z,8.87
2019-04-27T06:55:13.981Z,10.17
2019-04-27T06:57:58.344Z,13.60
2019-04-27T07:00:39.925Z,11.07
2019-04-27T07:03:22.150Z,10.17
2019-04-27T07:05:50.299Z,10.27
2019-04-27T07:08:32.517Z,12.60
2019-04-27T07:11:00.584Z,10.83
2019-04-27T07:13:29.157Z,9.97
2019-04-27T07:16:10.894Z,7.30
2019-04-27T07:18:39.717Z,6.33
2019-04-27T07:21:17.067Z,8.63
2019-04-27T07:23:56.204Z,4.93
2019-04-27T07:26:25.657Z,6.23
2019-04-27T07:29:09.370Z,4.20
2019-04-27T07:31:40.124Z,4.67
2019-04-27T07:34:09.320Z,5.23
2019-04-27T07:36:39.236Z,3.53
2019-04-27T07:39:11.175Z,7.30
2019-04-27T07:41:38.794Z,4.77
2019-04-27T07:44:12.597Z,2.43
2019-04-27T07:46:40.624Z,3.83
2019-04-27T07:49:09.314Z,2.80
2019-04-27T07:51:46.665Z,4.30
2019-04-27T07:54:29.033Z,5.97
2019-04-27T07:57:10.559Z,7.13
2019-04-27T07:59:53.289Z,10.00
2019-04-27T08:02:35.382Z,6.73
2019-04-27T08:05:03.417Z,3.53
2019-04-27T08:07:31.340Z,4.87
2019-04-27T08:10:14.275Z,5.17
2019-04-27T08:12:42.276Z,4.20
2019-04-27T08:22:11.175Z,4.80
2019-04-27T08:24:44.064Z,5.63
2019-04-27T08:27:37.279Z,6.33
2019-04-27T08:30:25.863Z,5.13
2019-04-27T08:33:00.720Z,8.47
2019-04-27T08:35:32.428Z,4.23
2019-04-27T08:38:12.484Z,7.47
2019-04-27T08:40:54.718Z,6.37
2019-04-27T08:43:38.832Z,5.80
2019-04-27T08:46:20.371Z,3.80
2019-04-27T08:49:02.404Z,5.13
2019-04-27T08:51:30.565Z,6.93
2019-04-27T08:53:59.144Z,4.37
2019-04-27T08:56:27.200Z,6.77
2019-04-27T08:58:55.114Z,7.93
2019-04-27T09:01:37.062Z,4.47
2019-04-27T09:04:20.137Z,7.00
2019-04-27T09:07:06.448Z,6.17
2019-04-27T09:09:51.721Z,5.10
2019-04-27T09:13:08.903Z,4.70
2019-04-27T09:16:11.091Z,4.57
2019-04-27T09:19:26.819Z,6.77
2019-04-27T09:22:15.893Z,5.73
2019-04-27T09:24:56.606Z,6.27
2019-04-27T09:27:39.073Z,7.50
2019-04-27T09:30:58.311Z,3.73
2019-04-27T09:34:10.580Z,9.03
2019-04-27T09:36:52.272Z,9.50
2019-04-27T09:39:38.922Z,7.23
2019-04-27T09:42:06.956Z,5.47
2019-04-27T09:44:48.836Z,5.17
2019-04-27T09:48:06.645Z,5.77
2019-04-27T09:52:23.682Z,5.47
2019-04-27T09:55:26.594Z,5.13
2019-04-27T09:58:21.813Z,6.83
2019-04-27T10:01:24.506Z,4.77
2019-04-27T10:04:20.890Z,8.43
2019-04-27T10:07:02.426Z,4.33
2019-04-27T10:09:45.512Z,5.13
2019-04-27T10:12:28.343Z,3.83
2019-04-27T10:15:17.405Z,4.87
2019-04-27T10:17:59.728Z,6.40
2019-04-27T10:20:56.291Z,5.07
2019-04-27T10:23:26.967Z,8.10
2019-04-27T10:26:10.052Z,6.83
2019-04-27T10:28:52.641Z,5.27
2019-04-27T10:31:35.088Z,3.20
2019-04-27T10:34:16.686Z,4.43
2019-04-27T10:36:59.151Z,7.00
2019-04-27T10:39:41.415Z,6.97
2019-04-27T10:42:09.309Z,7.83
2019-04-27T10:44:37.369Z,6.43
2019-04-27T10:47:05.900Z,6.20
2019-04-27T10:49:33.985Z,7.73
2019-04-27T10:52:02.092Z,6.43
2019-04-27T10:54:30.118Z,8.03
2019-04-27T10:56:58.137Z,7.40
2019-04-27T10:59:27.647Z,5.13
2019-04-27T11:01:56.046Z,6.20
2019-04-27T11:04:48.864Z,5.83
2019-04-27T11:07:18.891Z,6.30
2019-04-27T11:09:46.842Z,4.77
2019-04-27T11:12:15.836Z,5.03
2019-04-27T11:15:10.674Z,7.90
2019-04-27T11:17:38.753Z,8.07
2019-04-27T11:20:07.208Z,5.63
2019-04-27T11:22:36.333Z,6.07
2019-04-27T11:25:06.248Z,7.37
2019-04-27T11:27:34.395Z,6.77
2019-04-27T11:30:18.701Z,7.97
2019-04-27T11:32:46.901Z,6.67
2019-04-27T11:35:32.441Z,3.83
2019-04-27T11:38:00.456Z,4.60
2019-04-27T11:40:43.103Z,4.43
2019-04-27T11:43:26.120Z,3.97
2019-04-27T11:46:08.967Z,4.00
2019-04-27T11:48:37.341Z,3.10
2019-04-27T11:51:19.382Z,2.40
2019-04-27T11:54:01.839Z,4.17
2019-04-27T11:56:44.025Z,15.73
2019-04-27T11:59:27.123Z,2.67
2019-04-27T12:02:10.180Z,3.17
2019-04-27T12:04:51.982Z,3.27
2019-04-27T12:07:19.965Z,4.90
2019-04-27T12:09:48.196Z,5.20
2019-04-27T12:12:21.528Z,3.87
2019-04-27T12:15:12.578Z,4.60
2019-04-27T12:17:40.528Z,5.57
2019-04-27T12:20:08.872Z,2.90
2019-04-27T12:22:37.176Z,2.43
2019-04-27T12:25:06.609Z,4.63
2019-04-27T12:27:54.350Z,4.13
2019-04-27T12:30:32.708Z,2.87
2019-04-27T12:33:00.797Z,1.73
2019-04-27T12:35:28.740Z,3.90
2019-04-27T12:37:56.724Z,2.20
2019-04-27T12:40:26.703Z,4.20
2019-04-27T12:42:54.813Z,4.43
2019-04-27T12:45:23.133Z,3.30
2019-04-27T12:48:07.566Z,3.20
2019-04-27T12:50:49.666Z,4.57
2019-04-27T12:53:48.045Z,2.80
2019-04-27T12:56:35.834Z,3.37
2019-04-27T12:59:26.175Z,6.20
2019-04-27T13:02:08.628Z,3.97
2019-04-27T13:04:50.317Z,2.37
2019-04-27T13:07:32.542Z,4.83
2019-04-27T13:10:15.799Z,5.07
2019-04-27T13:12:43.487Z,6.80
2019-04-27T13:15:45.888Z,4.80
2019-04-27T13:18:14.232Z,8.33
2019-04-27T13:20:42.273Z,5.63
2019-04-27T13:23:10.539Z,4.80
2019-04-27T13:25:38.668Z,8.80
2019-04-27T13:28:06.802Z,4.20
2019-04-27T13:30:35.792Z,3.33
2019-04-27T13:33:04.128Z,7.20
2019-04-27T13:35:45.971Z,5.97
2019-04-27T13:38:28.228Z,6.30
2019-04-27T13:41:25.525Z,5.03
2019-04-27T13:43:57.527Z,7.43
2019-04-27T13:46:55.968Z,6.77
2019-04-27T13:49:56.211Z,5.37
2019-04-27T13:53:17.646Z,4.87
2019-04-27T13:55:46.436Z,6.57
2019-04-27T13:58:15.444Z,4.83
2019-04-27T14:00:43.416Z,6.87
2019-04-27T14:03:11.350Z,4.90
2019-04-27T14:05:39.421Z,6.50
2019-04-27T14:08:09.076Z,3.40
2019-04-27T14:10:38.655Z,5.97
2019-04-27T14:13:08.761Z,5.33
2019-04-27T14:15:56.737Z,4.03
2019-04-27T14:18:24.802Z,4.93
2019-04-27T14:20:52.659Z,4.00
2019-04-27T14:23:22.628Z,3.67
2019-04-27T14:25:51.093Z,3.37
2019-04-27T14:28:19.347Z,2.43
2019-04-27T14:30:48.634Z,3.97
2019-04-27T14:33:18.428Z,4.83
2019-04-27T14:35:48.032Z,6.70
2019-04-27T14:38:16.223Z,4.87
2019-04-27T14:40:44.105Z,5.93
2019-04-27T14:43:12.065Z,3.67
2019-04-27T14:45:40.066Z,5.00
2019-04-27T14:48:08.244Z,5.47
2019-04-27T14:50:36.440Z,6.73
2019-04-27T14:53:04.537Z,4.07
2019-04-27T14:55:32.441Z,7.47
2019-04-27T14:58:00.405Z,5.90
2019-04-27T15:00:28.760Z,5.50
2019-04-27T15:02:59.166Z,4.97
2019-04-27T15:05:27.167Z,6.67
2019-04-27T15:07:55.179Z,5.33
2019-04-27T15:10:28.623Z,6.57
2019-04-27T15:12:55.439Z,4.67
2019-04-27T15:16:06.763Z,5.20
2019-04-27T15:18:43.576Z,4.90
2019-04-27T15:21:10.422Z,4.67
2019-04-27T15:23:38.834Z,5.30
2019-04-27T15:26:06.753Z,5.23
2019-04-27T15:28:36.573Z,7.10
2019-04-27T15:31:27.030Z,7.90
2019-04-27T15:34:15.927Z,7.97
2019-04-27T15:36:52.847Z,6.10
2019-04-27T15:39:39.524Z,4.47
2019-04-27T15:42:09.844Z,8.90
2019-04-27T15:44:41.121Z,6.63
2019-04-27T15:47:11.720Z,7.03
2019-04-27T15:49:40.740Z,5.27
2019-04-27T15:52:09.057Z,4.83
2019-04-27T15:54:37.953Z,7.83
2019-04-27T15:57:10.527Z,8.33
2019-04-27T15:59:39.552Z,4.60
2019-04-27T16:02:12.135Z,6.03
2019-04-27T16:04:35.795Z,5.83
2019-04-27T16:07:03.930Z,4.13
2019-04-27T16:09:32.136Z,5.63
2019-04-27T16:12:09.935Z,4.77
2019-04-27T16:14:58.022Z,6.53
2019-04-27T16:17:24.518Z,6.03
2019-04-27T16:19:52.947Z,5.97
2019-04-27T16:22:22.605Z,5.93
2019-04-27T16:24:53.534Z,5.03
2019-04-27T16:27:20.666Z,5.00
2019-04-27T16:29:49.227Z,6.83
2019-04-27T16:32:17.552Z,6.07
2019-04-27T16:34:47.752Z,5.20
2019-04-27T16:37:28.551Z,6.50
2019-04-27T16:39:56.766Z,8.03
2019-04-27T16:42:24.957Z,4.33
2019-04-27T16:44:53.325Z,5.80
2019-04-27T16:47:24.470Z,5.30
2019-04-27T16:49:51.505Z,4.87
2019-04-27T16:52:21.032Z,3.73
2019-04-27T16:54:57.199Z,4.77
2019-04-27T16:57:22.615Z,8.17
2019-04-27T16:59:57.710Z,5.43
2019-04-27T17:02:25.037Z,6.07
2019-04-27T17:04:55.386Z,7.70
2019-04-27T17:07:21.828Z,5.60
2019-04-27T17:09:49.860Z,5.97
2019-04-27T17:12:18.603Z,5.20
2019-04-27T17:15:21.078Z,7.40
2019-04-27T17:17:59.258Z,7.80
2019-04-27T17:20:28.055Z,7.80
2019-04-27T17:22:58.313Z,6.00
2019-04-27T17:25:27.647Z,9.67
2019-04-27T17:28:04.127Z,8.50
2019-04-27T17:30:37.923Z,7.40
2019-04-27T17:33:15.179Z,9.77
2019-04-27T17:35:42.778Z,8.60
2019-04-27T17:38:12.826Z,6.43
2019-04-27T17:40:41.000Z,9.13
2019-04-27T17:43:10.530Z,6.77
2019-04-27T17:45:39.733Z,8.87
2019-04-27T17:48:10.785Z,8.90
2019-04-27T17:50:38.694Z,6.20
2019-04-27T17:53:08.080Z,8.70
2019-04-27T17:55:36.206Z,7.37
2019-04-27T17:58:05.274Z,8.33
2019-04-27T18:00:43.128Z,10.00
2019-04-27T18:03:04.863Z,12.87
2019-04-27T18:05:32.995Z,11.70
2019-04-27T18:08:01.065Z,11.83
2019-04-27T18:10:29.044Z,8.60
2019-04-27T18:12:58.297Z,10.57
2019-04-27T18:15:52.974Z,9.23
2019-04-27T18:18:29.456Z,10.27
2019-04-27T18:20:57.603Z,9.83
2019-04-27T18:23:27.514Z,10.30
2019-04-27T18:26:03.417Z,7.87
2019-04-27T18:28:33.804Z,9.07
2019-04-27T18:31:04.216Z,8.87
2019-04-27T18:33:32.707Z,7.07
2019-04-27T18:36:05.329Z,8.00
2019-04-27T18:38:35.600Z,9.60
2019-04-27T18:41:03.050Z,10.23
2019-04-27T18:43:32.961Z,9.80
2019-04-27T18:46:01.529Z,9.17
2019-04-27T18:48:55.952Z,10.77
2019-04-27T18:51:56.953Z,8.50
2019-04-27T18:54:22.932Z,9.53
2019-04-27T18:57:01.677Z,8.63
2019-04-27T18:59:22.260Z,10.93
2019-04-27T19:01:50.584Z,11.07
2019-04-27T19:04:21.089Z,7.47
2019-04-27T19:06:49.094Z,8.67
2019-04-27T19:09:18.660Z,9.90
2019-04-27T19:11:55.751Z,9.50
2019-04-27T19:14:47.763Z,9.57
2019-04-27T19:17:15.564Z,10.23
2019-04-27T19:19:44.275Z,9.97
2019-04-27T19:22:12.185Z,10.83
2019-04-27T19:24:41.424Z,12.63
2019-04-27T19:27:23.277Z,11.13
2019-04-27T19:29:54.625Z,10.20
2019-04-27T19:32:22.634Z,10.17
2019-04-27T19:34:50.693Z,10.50
2019-04-27T19:37:18.789Z,11.90
2019-04-27T19:39:47.888Z,7.37
2019-04-27T19:42:18.398Z,7.97
2019-04-27T19:44:48.075Z,9.83
2019-04-27T19:47:16.314Z,11.83
2019-04-27T19:49:44.399Z,9.90
2019-04-27T19:52:12.482Z,9.97
2019-04-27T19:54:40.473Z,8.23
2019-04-27T19:57:09.128Z,12.07
2019-04-27T19:59:43.496Z,12.90
2019-04-27T20:02:15.173Z,9.27
2019-04-27T20:04:45.864Z,8.40
2019-04-27T20:07:13.889Z,8.30
2019-04-27T20:10:08.770Z,8.63
2019-04-27T20:12:36.911Z,7.77
2019-04-27T20:15:57.386Z,10.20
2019-04-27T20:18:24.287Z,8.93
2019-04-27T20:20:52.362Z,9.93
2019-04-27T20:23:22.294Z,10.60
2019-04-27T20:26:18.256Z,10.97
2019-04-27T20:28:45.996Z,10.20
2019-04-27T20:31:14.117Z,10.30
2019-04-27T20:33:42.109Z,13.43
2019-04-27T20:36:11.247Z,12.23
2019-04-27T20:38:39.461Z,9.63
2019-04-27T20:41:07.413Z,9.57
2019-04-27T20:43:35.473Z,8.20
2019-04-27T20:46:03.540Z,11.93
2019-04-27T20:48:31.745Z,8.00
2019-04-27T20:51:01.293Z,8.83
2019-04-27T20:53:34.510Z,9.50
2019-04-27T20:56:02.470Z,8.37
2019-04-27T20:58:31.144Z,7.67
2019-04-27T21:00:59.253Z,9.23
2019-04-27T21:03:37.574Z,10.17
2019-04-27T21:06:30.703Z,12.80
2019-04-27T21:08:58.693Z,9.77
2019-04-27T21:11:42.168Z,12.03
2019-04-27T21:14:33.366Z,10.13
2019-04-27T21:17:03.254Z,13.43
2019-04-27T21:19:31.372Z,13.30
2019-04-27T21:22:01.102Z,12.57
2019-04-27T21:24:30.763Z,12.20
2019-04-27T21:26:59.072Z,12.43
2019-04-27T21:29:27.059Z,12.20
2019-04-27T21:32:18.772Z,10.63
2019-04-27T21:34:46.750Z,10.57
2019-04-27T21:37:14.777Z,9.27
2019-04-27T21:39:43.014Z,10.07
2019-04-27T21:42:11.183Z,11.33
2019-04-27T21:44:39.268Z,11.03
2019-04-27T21:47:07.323Z,9.70
2019-04-27T21:49:35.438Z,9.93
2019-04-27T21:52:12.720Z,10.53
2019-04-27T21:54:41.135Z,11.00
2019-04-27T21:57:11.009Z,11.60
2019-04-27T21:59:39.047Z,9.53
2019-04-27T22:02:08.764Z,11.70
2019-04-27T22:04:36.902Z,6.47
2019-04-27T22:07:07.873Z,8.67
2019-04-27T22:09:36.674Z,6.33
2019-04-27T22:12:06.337Z,9.43
2019-04-27T22:14:34.660Z,9.30
2019-04-27T22:17:07.633Z,8.33
2019-04-27T22:19:35.961Z,9.07
2019-04-27T22:22:10.674Z,8.03
2019-04-27T22:24:42.853Z,7.10
2019-04-27T22:27:09.554Z,6.53
2019-04-27T22:29:38.053Z,8.57
2019-04-27T22:32:06.275Z,7.23
2019-04-27T22:34:34.672Z,9.07
2019-04-27T22:37:02.824Z,9.83
2019-04-27T22:39:52.749Z,6.40
2019-04-27T22:42:42.832Z,7.67
2019-04-27T22:45:15.703Z,7.10
2019-04-27T22:47:43.813Z,7.90
2019-04-27T22:50:13.588Z,9.97
2019-04-27T22:52:41.512Z,9.83
2019-04-27T22:55:11.681Z,7.17
2019-04-27T22:57:46.180Z,11.63
2019-04-27T23:00:43.238Z,8.77
2019-04-27T23:03:16.024Z,9.37
2019-04-27T23:05:44.163Z,10.73
2019-04-27T23:08:12.129Z,9.67
2019-04-27T23:10:40.139Z,6.80
2019-04-27T23:13:08.354Z,6.77
2019-04-27T23:15:41.544Z,8.90
2019-04-27T23:18:09.460Z,8.17
2019-04-27T23:20:37.314Z,8.73
2019-04-27T23:23:05.330Z,6.33
2019-04-27T23:25:33.297Z,6.53
2019-04-27T23:28:01.270Z,8.77
2019-04-27T23:30:41.018Z,7.60
2019-04-27T23:33:09.067Z,7.57
2019-04-27T23:35:36.951Z,10.67
2019-04-27T23:38:16.864Z,9.53
2019-04-27T23:40:34.744Z,8.40
2019-04-27T23:43:02.746Z,8.77
2019-04-27T23:45:31.866Z,10.97
2019-04-27T23:47:59.929Z,7.60
2019-04-27T23:50:31.380Z,8.20
2019-04-27T23:53:11.936Z,7.37
2019-04-27T23:55:39.867Z,7.83
2019-04-27T23:58:07.778Z,7.63
